sensor_id;sensor_type;location;lat;lon;timestamp;P1;durP1;ratioP1;P2;durP2;ratioP2
19111;SDS011;9688;51.906;8.376;2024-03-02T00:02:21;8.83;;;6.40;;
19111;SDS011;9688;51.906;8.376;2024-03-02T00:05:07;13.57;;;6.77;;
19111;SDS011;9688;51.906;8.376;2024-03-02T00:07:53;13.43;;;6.97;;
19111;SDS011;9688;51.906;8.376;2024-03-02T00:10:40;9.17;;;7.00;;
19111;SDS011;9688;51.906;8.376;2024-03-02T00:13:25;10.37;;;6.97;;
19111;SDS011;9688;51.906;8.376;2024-03-02T00:16:11;13.30;;;7.30;;
19111;SDS011;9688;51.906;8.376;2024-03-02T00:19:03;11.70;;;7.20;;
19111;SDS011;9688;51.906;8.376;2024-03-02T00:21:52;12.37;;;7.87;;
19111;SDS011;9688;51.906;8.376;2024-03-02T00:24:37;11.73;;;7.50;;
19111;SDS011;9688;51.906;8.376;2024-03-02T00:27:24;9.70;;;7.10;;
19111;SDS011;9688;51.906;8.376;2024-03-02T00:30:13;12.97;;;8.07;;
19111;SDS011;9688;51.906;8.376;2024-03-02T00:33:35;13.13;;;7.30;;
19111;SDS011;9688;51.906;8.376;2024-03-02T00:36:24;10.23;;;7.70;;
19111;SDS011;9688;51.906;8.376;2024-03-02T00:39:11;12.83;;;9.03;;
19111;SDS011;9688;51.906;8.376;2024-03-02T00:41:59;10.33;;;7.17;;
19111;SDS011;9688;51.906;8.376;2024-03-02T00:44:44;11.27;;;7.37;;
19111;SDS011;9688;51.906;8.376;2024-03-02T00:47:31;11.50;;;7.80;;
19111;SDS011;9688;51.906;8.376;2024-03-02T00:50:17;11.80;;;7.17;;
19111;SDS011;9688;51.906;8.376;2024-03-02T00:53:05;12.40;;;8.10;;
19111;SDS011;9688;51.906;8.376;2024-03-02T00:55:50;12.23;;;8.27;;
19111;SDS011;9688;51.906;8.376;2024-03-02T00:58:36;11.83;;;8.03;;
19111;SDS011;9688;51.906;8.376;2024-03-02T01:01:21;13.30;;;7.97;;
19111;SDS011;9688;51.906;8.376;2024-03-02T01:04:06;12.07;;;7.47;;
19111;SDS011;9688;51.906;8.376;2024-03-02T01:06:52;16.07;;;8.03;;
19111;SDS011;9688;51.906;8.376;2024-03-02T01:09:38;12.20;;;8.50;;
19111;SDS011;9688;51.906;8.376;2024-03-02T01:12:25;14.03;;;8.67;;
19111;SDS011;9688;51.906;8.376;2024-03-02T01:15:10;14.20;;;8.50;;
19111;SDS011;9688;51.906;8.376;2024-03-02T01:17:55;12.87;;;8.23;;
19111;SDS011;9688;51.906;8.376;2024-03-02T01:20:41;14.30;;;9.13;;
19111;SDS011;9688;51.906;8.376;2024-03-02T01:23:26;14.03;;;8.00;;
19111;SDS011;9688;51.906;8.376;2024-03-02T01:26:13;13.03;;;7.93;;
19111;SDS011;9688;51.906;8.376;2024-03-02T01:28:59;13.37;;;8.37;;
19111;SDS011;9688;51.906;8.376;2024-03-02T01:31:45;13.50;;;8.33;;
19111;SDS011;9688;51.906;8.376;2024-03-02T01:34:30;11.90;;;8.03;;
19111;SDS011;9688;51.906;8.376;2024-03-02T01:37:15;12.70;;;8.20;;
19111;SDS011;9688;51.906;8.376;2024-03-02T01:40:00;13.63;;;8.13;;
19111;SDS011;9688;51.906;8.376;2024-03-02T01:42:48;11.77;;;7.83;;
19111;SDS011;9688;51.906;8.376;2024-03-02T01:45:33;11.13;;;8.00;;
19111;SDS011;9688;51.906;8.376;2024-03-02T01:48:19;12.37;;;8.60;;
19111;SDS011;9688;51.906;8.376;2024-03-02T01:51:04;11.60;;;8.27;;
19111;SDS011;9688;51.906;8.376;2024-03-02T01:53:50;13.57;;;8.60;;
19111;SDS011;9688;51.906;8.376;2024-03-02T01:56:35;11.40;;;8.00;;
19111;SDS011;9688;51.906;8.376;2024-03-02T01:59:23;12.80;;;8.40;;
19111;SDS011;9688;51.906;8.376;2024-03-02T02:02:09;13.77;;;8.40;;
19111;SDS011;9688;51.906;8.376;2024-03-02T02:04:55;11.93;;;7.77;;
19111;SDS011;9688;51.906;8.376;2024-03-02T02:07:40;13.23;;;7.83;;
19111;SDS011;9688;51.906;8.376;2024-03-02T02:10:26;13.93;;;8.40;;
19111;SDS011;9688;51.906;8.376;2024-03-02T02:13:11;12.30;;;8.23;;
19111;SDS011;9688;51.906;8.376;2024-03-02T02:16:05;13.17;;;8.57;;
19111;SDS011;9688;51.906;8.376;2024-03-02T02:18:51;12.03;;;8.37;;
19111;SDS011;9688;51.906;8.376;2024-03-02T02:21:37;10.13;;;7.43;;
19111;SDS011;9688;51.906;8.376;2024-03-02T02:24:23;11.70;;;8.03;;
19111;SDS011;9688;51.906;8.376;2024-03-02T02:27:08;12.13;;;8.83;;
19111;SDS011;9688;51.906;8.376;2024-03-02T02:29:53;10.83;;;7.83;;
19111;SDS011;9688;51.906;8.376;2024-03-02T02:32:40;13.83;;;7.73;;
19111;SDS011;9688;51.906;8.376;2024-03-02T02:35:25;10.20;;;7.53;;
19111;SDS011;9688;51.906;8.376;2024-03-02T02:38:11;13.03;;;8.20;;
19111;SDS011;9688;51.906;8.376;2024-03-02T02:40:56;11.50;;;8.07;;
19111;SDS011;9688;51.906;8.376;2024-03-02T02:43:42;11.13;;;7.60;;
19111;SDS011;9688;51.906;8.376;2024-03-02T02:46:27;10.87;;;7.60;;
19111;SDS011;9688;51.906;8.376;2024-03-02T02:49:12;11.13;;;7.93;;
19111;SDS011;9688;51.906;8.376;2024-03-02T02:51:57;10.87;;;7.50;;
19111;SDS011;9688;51.906;8.376;2024-03-02T02:54:43;11.00;;;8.37;;
19111;SDS011;9688;51.906;8.376;2024-03-02T02:57:28;14.20;;;8.40;;
19111;SDS011;9688;51.906;8.376;2024-03-02T03:00:18;10.00;;;7.77;;
19111;SDS011;9688;51.906;8.376;2024-03-02T03:03:07;11.30;;;7.73;;
19111;SDS011;9688;51.906;8.376;2024-03-02T03:05:52;11.93;;;8.17;;
19111;SDS011;9688;51.906;8.376;2024-03-02T03:08:37;12.30;;;7.80;;
19111;SDS011;9688;51.906;8.376;2024-03-02T03:11:24;12.77;;;9.27;;
19111;SDS011;9688;51.906;8.376;2024-03-02T03:14:10;11.57;;;8.00;;
19111;SDS011;9688;51.906;8.376;2024-03-02T03:16:55;12.03;;;8.13;;
19111;SDS011;9688;51.906;8.376;2024-03-02T03:19:40;12.23;;;8.80;;
19111;SDS011;9688;51.906;8.376;2024-03-02T03:22:25;13.03;;;7.63;;
19111;SDS011;9688;51.906;8.376;2024-03-02T03:25:11;12.30;;;8.27;;
19111;SDS011;9688;51.906;8.376;2024-03-02T03:27:57;15.83;;;8.63;;
19111;SDS011;9688;51.906;8.376;2024-03-02T03:30:42;12.23;;;8.77;;
19111;SDS011;9688;51.906;8.376;2024-03-02T03:33:28;14.83;;;9.10;;
19111;SDS011;9688;51.906;8.376;2024-03-02T03:36:13;13.57;;;8.60;;
19111;SDS011;9688;51.906;8.376;2024-03-02T03:38:58;15.17;;;9.07;;
19111;SDS011;9688;51.906;8.376;2024-03-02T03:41:45;12.40;;;8.97;;
19111;SDS011;9688;51.906;8.376;2024-03-02T03:44:32;15.73;;;9.27;;
19111;SDS011;9688;51.906;8.376;2024-03-02T03:47:17;13.80;;;9.77;;
19111;SDS011;9688;51.906;8.376;2024-03-02T03:50:04;15.63;;;9.83;;
19111;SDS011;9688;51.906;8.376;2024-03-02T03:52:50;13.73;;;9.40;;
19111;SDS011;9688;51.906;8.376;2024-03-02T03:55:35;14.23;;;9.30;;
19111;SDS011;9688;51.906;8.376;2024-03-02T03:58:20;14.27;;;8.93;;
19111;SDS011;9688;51.906;8.376;2024-03-02T04:01:07;14.90;;;9.37;;
19111;SDS011;9688;51.906;8.376;2024-03-02T04:03:53;14.13;;;9.83;;
19111;SDS011;9688;51.906;8.376;2024-03-02T04:06:38;14.77;;;9.53;;
19111;SDS011;9688;51.906;8.376;2024-03-02T04:09:23;16.83;;;10.53;;
19111;SDS011;9688;51.906;8.376;2024-03-02T04:12:09;17.50;;;10.87;;
19111;SDS011;9688;51.906;8.376;2024-03-02T04:14:56;14.67;;;9.93;;
19111;SDS011;9688;51.906;8.376;2024-03-02T04:17:43;19.03;;;10.10;;
19111;SDS011;9688;51.906;8.376;2024-03-02T04:20:28;17.13;;;10.13;;
19111;SDS011;9688;51.906;8.376;2024-03-02T04:23:15;15.53;;;10.53;;
19111;SDS011;9688;51.906;8.376;2024-03-02T04:26:00;15.67;;;10.70;;
19111;SDS011;9688;51.906;8.376;2024-03-02T04:28:45;15.83;;;10.57;;
19111;SDS011;9688;51.906;8.376;2024-03-02T04:31:30;18.97;;;11.00;;
19111;SDS011;9688;51.906;8.376;2024-03-02T04:34:17;16.83;;;10.93;;
19111;SDS011;9688;51.906;8.376;2024-03-02T04:37:02;17.47;;;11.10;;
19111;SDS011;9688;51.906;8.376;2024-03-02T04:39:47;18.30;;;11.33;;
19111;SDS011;9688;51.906;8.376;2024-03-02T04:42:33;16.07;;;10.57;;
19111;SDS011;9688;51.906;8.376;2024-03-02T04:45:18;18.33;;;11.30;;
19111;SDS011;9688;51.906;8.376;2024-03-02T04:48:03;19.27;;;11.77;;
19111;SDS011;9688;51.906;8.376;2024-03-02T04:50:50;17.97;;;11.20;;
19111;SDS011;9688;51.906;8.376;2024-03-02T04:53:36;20.83;;;12.67;;
19111;SDS011;9688;51.906;8.376;2024-03-02T04:56:22;21.27;;;12.23;;
19111;SDS011;9688;51.906;8.376;2024-03-02T04:59:28;22.10;;;11.97;;
19111;SDS011;9688;51.906;8.376;2024-03-02T05:02:13;19.33;;;11.77;;
19111;SDS011;9688;51.906;8.376;2024-03-02T05:04:59;19.90;;;12.10;;
19111;SDS011;9688;51.906;8.376;2024-03-02T05:07:45;21.00;;;12.30;;
19111;SDS011;9688;51.906;8.376;2024-03-02T05:10:30;21.77;;;11.87;;
19111;SDS011;9688;51.906;8.376;2024-03-02T05:13:16;22.13;;;11.83;;
19111;SDS011;9688;51.906;8.376;2024-03-02T05:16:01;20.90;;;12.07;;
19111;SDS011;9688;51.906;8.376;2024-03-02T05:18:47;21.87;;;12.90;;
19111;SDS011;9688;51.906;8.376;2024-03-02T05:21:32;19.97;;;12.90;;
19111;SDS011;9688;51.906;8.376;2024-03-02T05:24:19;23.40;;;13.50;;
19111;SDS011;9688;51.906;8.376;2024-03-02T05:27:04;19.97;;;12.10;;
19111;SDS011;9688;51.906;8.376;2024-03-02T05:29:51;21.90;;;12.77;;
19111;SDS011;9688;51.906;8.376;2024-03-02T05:32:36;20.17;;;12.50;;
19111;SDS011;9688;51.906;8.376;2024-03-02T05:35:21;23.73;;;12.53;;
19111;SDS011;9688;51.906;8.376;2024-03-02T05:38:06;20.33;;;12.33;;
19111;SDS011;9688;51.906;8.376;2024-03-02T05:40:54;23.47;;;13.43;;
19111;SDS011;9688;51.906;8.376;2024-03-02T05:43:39;23.17;;;13.17;;
19111;SDS011;9688;51.906;8.376;2024-03-02T05:46:24;20.37;;;12.67;;
19111;SDS011;9688;51.906;8.376;2024-03-02T05:49:10;22.20;;;12.87;;
19111;SDS011;9688;51.906;8.376;2024-03-02T05:51:55;19.90;;;12.70;;
19111;SDS011;9688;51.906;8.376;2024-03-02T05:54:41;20.87;;;11.90;;
19111;SDS011;9688;51.906;8.376;2024-03-02T05:57:27;19.77;;;12.37;;
19111;SDS011;9688;51.906;8.376;2024-03-02T06:00:29;18.03;;;11.50;;
19111;SDS011;9688;51.906;8.376;2024-03-02T06:03:14;20.43;;;11.90;;
19111;SDS011;9688;51.906;8.376;2024-03-02T06:06:00;24.50;;;11.97;;
19111;SDS011;9688;51.906;8.376;2024-03-02T06:08:45;20.90;;;12.33;;
19111;SDS011;9688;51.906;8.376;2024-03-02T06:11:30;20.97;;;12.47;;
19111;SDS011;9688;51.906;8.376;2024-03-02T06:14:17;21.30;;;12.40;;
19111;SDS011;9688;51.906;8.376;2024-03-02T06:17:02;22.77;;;13.17;;
19111;SDS011;9688;51.906;8.376;2024-03-02T06:19:49;21.27;;;12.53;;
19111;SDS011;9688;51.906;8.376;2024-03-02T06:22:34;21.03;;;13.00;;
19111;SDS011;9688;51.906;8.376;2024-03-02T06:25:20;21.13;;;12.67;;
19111;SDS011;9688;51.906;8.376;2024-03-02T06:28:05;21.47;;;12.13;;
19111;SDS011;9688;51.906;8.376;2024-03-02T06:30:52;21.70;;;11.97;;
19111;SDS011;9688;51.906;8.376;2024-03-02T06:33:37;21.67;;;12.43;;
19111;SDS011;9688;51.906;8.376;2024-03-02T06:36:23;22.60;;;13.63;;
19111;SDS011;9688;51.906;8.376;2024-03-02T06:39:09;20.10;;;12.50;;
19111;SDS011;9688;51.906;8.376;2024-03-02T06:41:56;20.23;;;12.10;;
19111;SDS011;9688;51.906;8.376;2024-03-02T06:44:41;20.03;;;11.70;;
19111;SDS011;9688;51.906;8.376;2024-03-02T06:47:28;23.80;;;13.77;;
19111;SDS011;9688;51.906;8.376;2024-03-02T06:50:14;20.97;;;12.30;;
19111;SDS011;9688;51.906;8.376;2024-03-02T06:52:59;22.00;;;12.93;;
19111;SDS011;9688;51.906;8.376;2024-03-02T06:55:44;22.83;;;12.00;;
19111;SDS011;9688;51.906;8.376;2024-03-02T06:58:30;24.33;;;12.17;;
19111;SDS011;9688;51.906;8.376;2024-03-02T07:01:15;22.07;;;12.27;;
19111;SDS011;9688;51.906;8.376;2024-03-02T07:04:02;20.57;;;12.53;;
19111;SDS011;9688;51.906;8.376;2024-03-02T07:06:50;25.07;;;12.87;;
19111;SDS011;9688;51.906;8.376;2024-03-02T07:09:36;23.00;;;12.43;;
19111;SDS011;9688;51.906;8.376;2024-03-02T07:12:21;21.10;;;12.40;;
19111;SDS011;9688;51.906;8.376;2024-03-02T07:15:06;21.73;;;12.67;;
19111;SDS011;9688;51.906;8.376;2024-03-02T07:18:12;21.20;;;12.40;;
19111;SDS011;9688;51.906;8.376;2024-03-02T07:20:58;21.63;;;12.47;;
19111;SDS011;9688;51.906;8.376;2024-03-02T07:23:45;24.07;;;13.37;;
19111;SDS011;9688;51.906;8.376;2024-03-02T07:26:30;20.17;;;11.60;;
19111;SDS011;9688;51.906;8.376;2024-03-02T07:29:16;21.90;;;12.17;;
19111;SDS011;9688;51.906;8.376;2024-03-02T07:32:02;21.43;;;13.53;;
19111;SDS011;9688;51.906;8.376;2024-03-02T07:34:48;19.07;;;12.67;;
19111;SDS011;9688;51.906;8.376;2024-03-02T07:37:36;24.57;;;12.80;;
19111;SDS011;9688;51.906;8.376;2024-03-02T07:40:21;21.23;;;13.10;;
19111;SDS011;9688;51.906;8.376;2024-03-02T07:43:06;20.83;;;12.40;;
19111;SDS011;9688;51.906;8.376;2024-03-02T07:45:52;23.47;;;12.73;;
19111;SDS011;9688;51.906;8.376;2024-03-02T07:48:37;22.10;;;12.53;;
19111;SDS011;9688;51.906;8.376;2024-03-02T07:51:23;21.90;;;13.13;;
19111;SDS011;9688;51.906;8.376;2024-03-02T07:54:10;22.37;;;12.53;;
19111;SDS011;9688;51.906;8.376;2024-03-02T07:56:55;23.57;;;12.73;;
19111;SDS011;9688;51.906;8.376;2024-03-02T07:59:40;22.03;;;12.70;;
19111;SDS011;9688;51.906;8.376;2024-03-02T08:02:26;19.43;;;11.53;;
19111;SDS011;9688;51.906;8.376;2024-03-02T08:05:11;20.67;;;11.60;;
19111;SDS011;9688;51.906;8.376;2024-03-02T08:07:57;21.83;;;11.43;;
19111;SDS011;9688;51.906;8.376;2024-03-02T08:10:44;19.87;;;10.77;;
19111;SDS011;9688;51.906;8.376;2024-03-02T08:13:31;18.83;;;10.90;;
19111;SDS011;9688;51.906;8.376;2024-03-02T08:16:16;20.27;;;11.63;;
19111;SDS011;9688;51.906;8.376;2024-03-02T08:19:03;18.93;;;10.93;;
19111;SDS011;9688;51.906;8.376;2024-03-02T08:21:48;19.80;;;11.07;;
19111;SDS011;9688;51.906;8.376;2024-03-02T08:24:33;18.00;;;10.17;;
19111;SDS011;9688;51.906;8.376;2024-03-02T08:27:21;18.47;;;10.27;;
19111;SDS011;9688;51.906;8.376;2024-03-02T08:30:07;20.87;;;9.60;;
19111;SDS011;9688;51.906;8.376;2024-03-02T08:32:54;17.00;;;10.30;;
19111;SDS011;9688;51.906;8.376;2024-03-02T08:35:39;17.20;;;9.80;;
19111;SDS011;9688;51.906;8.376;2024-03-02T08:38:25;15.90;;;10.10;;
19111;SDS011;9688;51.906;8.376;2024-03-02T08:41:10;14.73;;;9.97;;
19111;SDS011;9688;51.906;8.376;2024-03-02T08:43:59;15.23;;;9.50;;
19111;SDS011;9688;51.906;8.376;2024-03-02T08:46:44;17.20;;;9.83;;
19111;SDS011;9688;51.906;8.376;2024-03-02T08:49:29;14.23;;;9.40;;
19111;SDS011;9688;51.906;8.376;2024-03-02T08:52:14;16.93;;;10.13;;
19111;SDS011;9688;51.906;8.376;2024-03-02T08:55:00;14.13;;;9.00;;
19111;SDS011;9688;51.906;8.376;2024-03-02T08:57:45;14.93;;;9.53;;
19111;SDS011;9688;51.906;8.376;2024-03-02T09:00:32;13.77;;;8.70;;
19111;SDS011;9688;51.906;8.376;2024-03-02T09:03:17;13.87;;;8.83;;
19111;SDS011;9688;51.906;8.376;2024-03-02T09:06:02;13.07;;;7.93;;
19111;SDS011;9688;51.906;8.376;2024-03-02T09:08:48;14.90;;;8.70;;
19111;SDS011;9688;51.906;8.376;2024-03-02T09:11:36;12.57;;;7.90;;
19111;SDS011;9688;51.906;8.376;2024-03-02T09:14:21;10.00;;;7.20;;
19111;SDS011;9688;51.906;8.376;2024-03-02T09:17:08;10.83;;;7.10;;
19111;SDS011;9688;51.906;8.376;2024-03-02T09:19:55;9.00;;;6.13;;
19111;SDS011;9688;51.906;8.376;2024-03-02T09:22:40;8.43;;;5.37;;
19111;SDS011;9688;51.906;8.376;2024-03-02T09:25:25;6.80;;;4.87;;
19111;SDS011;9688;51.906;8.376;2024-03-02T09:28:11;4.80;;;4.17;;
19111;SDS011;9688;51.906;8.376;2024-03-02T09:30:56;5.33;;;3.80;;
19111;SDS011;9688;51.906;8.376;2024-03-02T09:33:43;8.80;;;4.50;;
19111;SDS011;9688;51.906;8.376;2024-03-02T09:36:28;7.10;;;4.83;;
19111;SDS011;9688;51.906;8.376;2024-03-02T09:39:13;8.03;;;4.83;;
19111;SDS011;9688;51.906;8.376;2024-03-02T09:41:59;6.53;;;4.60;;
19111;SDS011;9688;51.906;8.376;2024-03-02T09:44:44;8.03;;;4.93;;
19111;SDS011;9688;51.906;8.376;2024-03-02T09:47:30;10.03;;;5.37;;
19111;SDS011;9688;51.906;8.376;2024-03-02T09:50:17;6.53;;;5.00;;
19111;SDS011;9688;51.906;8.376;2024-03-02T09:53:02;7.20;;;5.40;;
19111;SDS011;9688;51.906;8.376;2024-03-02T09:59:30;10.00;;;5.80;;
19111;SDS011;9688;51.906;8.376;2024-03-02T10:02:16;9.70;;;6.53;;
19111;SDS011;9688;51.906;8.376;2024-03-02T10:05:02;10.77;;;7.20;;
19111;SDS011;9688;51.906;8.376;2024-03-02T10:07:54;12.53;;;7.10;;
19111;SDS011;9688;51.906;8.376;2024-03-02T10:10:44;12.97;;;6.40;;
19111;SDS011;9688;51.906;8.376;2024-03-02T10:13:29;9.80;;;6.67;;
19111;SDS011;9688;51.906;8.376;2024-03-02T10:16:15;12.60;;;6.97;;
19111;SDS011;9688;51.906;8.376;2024-03-02T10:19:18;10.53;;;6.43;;
19111;SDS011;9688;51.906;8.376;2024-03-02T10:22:04;9.37;;;6.43;;
19111;SDS011;9688;51.906;8.376;2024-03-02T10:24:53;10.03;;;6.10;;
19111;SDS011;9688;51.906;8.376;2024-03-02T10:28:05;12.13;;;6.23;;
19111;SDS011;9688;51.906;8.376;2024-03-02T10:30:33;7.57;;;6.00;;
19111;SDS011;9688;51.906;8.376;2024-03-02T10:33:19;8.87;;;5.30;;
19111;SDS011;9688;51.906;8.376;2024-03-02T10:36:04;6.87;;;5.53;;
19111;SDS011;9688;51.906;8.376;2024-03-02T10:38:53;7.37;;;5.87;;
19111;SDS011;9688;51.906;8.376;2024-03-02T10:41:40;7.13;;;5.77;;
19111;SDS011;9688;51.906;8.376;2024-03-02T10:44:26;10.80;;;6.63;;
19111;SDS011;9688;51.906;8.376;2024-03-02T10:47:12;9.83;;;6.40;;
19111;SDS011;9688;51.906;8.376;2024-03-02T10:49:59;18.67;;;7.10;;
19111;SDS011;9688;51.906;8.376;2024-03-02T10:52:47;10.67;;;6.77;;
19111;SDS011;9688;51.906;8.376;2024-03-02T10:55:33;10.83;;;6.90;;
19111;SDS011;9688;51.906;8.376;2024-03-02T10:58:21;10.70;;;6.03;;
19111;SDS011;9688;51.906;8.376;2024-03-02T11:01:09;6.07;;;4.73;;
19111;SDS011;9688;51.906;8.376;2024-03-02T11:03:56;5.63;;;4.80;;
19111;SDS011;9688;51.906;8.376;2024-03-02T11:06:42;7.03;;;5.67;;
19111;SDS011;9688;51.906;8.376;2024-03-02T11:09:33;7.93;;;5.80;;
19111;SDS011;9688;51.906;8.376;2024-03-02T11:12:22;8.23;;;5.80;;
19111;SDS011;9688;51.906;8.376;2024-03-02T11:15:11;8.43;;;5.53;;
19111;SDS011;9688;51.906;8.376;2024-03-02T11:18:04;6.00;;;5.23;;
19111;SDS011;9688;51.906;8.376;2024-03-02T11:20:52;8.83;;;6.93;;
19111;SDS011;9688;51.906;8.376;2024-03-02T11:23:38;11.93;;;7.80;;
19111;SDS011;9688;51.906;8.376;2024-03-02T11:26:24;11.33;;;7.30;;
19111;SDS011;9688;51.906;8.376;2024-03-02T11:29:09;9.73;;;7.57;;
19111;SDS011;9688;51.906;8.376;2024-03-02T11:32:29;12.17;;;7.33;;
19111;SDS011;9688;51.906;8.376;2024-03-02T11:35:14;9.67;;;6.50;;
19111;SDS011;9688;51.906;8.376;2024-03-02T11:37:59;8.63;;;5.73;;
19111;SDS011;9688;51.906;8.376;2024-03-02T11:40:47;8.30;;;5.67;;
19111;SDS011;9688;51.906;8.376;2024-03-02T11:43:32;5.80;;;4.77;;
19111;SDS011;9688;51.906;8.376;2024-03-02T11:46:18;7.23;;;5.47;;
19111;SDS011;9688;51.906;8.376;2024-03-02T11:49:08;6.07;;;4.30;;
19111;SDS011;9688;51.906;8.376;2024-03-02T11:52:00;7.57;;;4.83;;
19111;SDS011;9688;51.906;8.376;2024-03-02T11:54:47;10.27;;;4.83;;
19111;SDS011;9688;51.906;8.376;2024-03-02T11:57:35;6.07;;;4.93;;
19111;SDS011;9688;51.906;8.376;2024-03-02T12:00:20;7.40;;;3.70;;
19111;SDS011;9688;51.906;8.376;2024-03-02T12:03:06;5.70;;;4.30;;
19111;SDS011;9688;51.906;8.376;2024-03-02T12:05:55;5.53;;;4.53;;
19111;SDS011;9688;51.906;8.376;2024-03-02T12:08:40;5.27;;;4.30;;
19111;SDS011;9688;51.906;8.376;2024-03-02T12:11:27;3.97;;;2.00;;
19111;SDS011;9688;51.906;8.376;2024-03-02T12:14:12;1.90;;;1.80;;
19111;SDS011;9688;51.906;8.376;2024-03-02T12:16:57;1.80;;;1.70;;
19111;SDS011;9688;51.906;8.376;2024-03-02T12:19:43;1.93;;;1.80;;
19111;SDS011;9688;51.906;8.376;2024-03-02T12:22:31;1.87;;;1.77;;
19111;SDS011;9688;51.906;8.376;2024-03-02T12:25:16;1.80;;;1.70;;
19111;SDS011;9688;51.906;8.376;2024-03-02T12:28:01;1.63;;;1.47;;
19111;SDS011;9688;51.906;8.376;2024-03-02T12:30:47;1.80;;;1.70;;
19111;SDS011;9688;51.906;8.376;2024-03-02T12:33:34;1.43;;;1.40;;
19111;SDS011;9688;51.906;8.376;2024-03-02T12:36:19;1.70;;;1.50;;
19111;SDS011;9688;51.906;8.376;2024-03-02T12:39:06;1.70;;;1.60;;
19111;SDS011;9688;51.906;8.376;2024-03-02T12:41:52;3.97;;;3.10;;
19111;SDS011;9688;51.906;8.376;2024-03-02T12:44:39;3.87;;;3.53;;
19111;SDS011;9688;51.906;8.376;2024-03-02T12:47:24;4.83;;;3.20;;
19111;SDS011;9688;51.906;8.376;2024-03-02T12:50:10;3.93;;;3.43;;
19111;SDS011;9688;51.906;8.376;2024-03-02T12:52:55;6.40;;;3.67;;
19111;SDS011;9688;51.906;8.376;2024-03-02T12:55:42;3.90;;;3.30;;
19111;SDS011;9688;51.906;8.376;2024-03-02T12:58:28;3.87;;;3.50;;
19111;SDS011;9688;51.906;8.376;2024-03-02T13:01:14;6.83;;;3.60;;
19111;SDS011;9688;51.906;8.376;2024-03-02T13:04:02;4.50;;;4.10;;
19111;SDS011;9688;51.906;8.376;2024-03-02T13:06:48;4.07;;;3.63;;
19111;SDS011;9688;51.906;8.376;2024-03-02T13:09:33;5.53;;;4.10;;
19111;SDS011;9688;51.906;8.376;2024-03-02T13:12:21;3.97;;;3.57;;
19111;SDS011;9688;51.906;8.376;2024-03-02T13:15:08;4.13;;;3.73;;
19111;SDS011;9688;51.906;8.376;2024-03-02T13:17:53;5.07;;;3.60;;
19111;SDS011;9688;51.906;8.376;2024-03-02T13:20:38;4.07;;;3.50;;
19111;SDS011;9688;51.906;8.376;2024-03-02T13:23:23;4.47;;;3.93;;
19111;SDS011;9688;51.906;8.376;2024-03-02T13:26:09;5.23;;;3.93;;
19111;SDS011;9688;51.906;8.376;2024-03-02T13:28:57;5.90;;;4.03;;
19111;SDS011;9688;51.906;8.376;2024-03-02T13:31:42;4.80;;;3.73;;
19111;SDS011;9688;51.906;8.376;2024-03-02T13:34:28;5.00;;;4.20;;
19111;SDS011;9688;51.906;8.376;2024-03-02T13:37:13;4.30;;;3.60;;
19111;SDS011;9688;51.906;8.376;2024-03-02T13:39:58;4.27;;;3.87;;
19111;SDS011;9688;51.906;8.376;2024-03-02T13:42:43;5.10;;;3.90;;
19111;SDS011;9688;51.906;8.376;2024-03-02T13:45:31;6.73;;;4.37;;
19111;SDS011;9688;51.906;8.376;2024-03-02T13:48:16;6.40;;;4.10;;
19111;SDS011;9688;51.906;8.376;2024-03-02T13:51:03;4.63;;;3.93;;
19111;SDS011;9688;51.906;8.376;2024-03-02T13:53:49;4.67;;;4.27;;
19111;SDS011;9688;51.906;8.376;2024-03-02T13:56:34;3.83;;;3.50;;
19111;SDS011;9688;51.906;8.376;2024-03-02T13:59:23;4.10;;;3.70;;
19111;SDS011;9688;51.906;8.376;2024-03-02T14:02:09;7.17;;;3.67;;
19111;SDS011;9688;51.906;8.376;2024-03-02T14:04:56;6.27;;;3.60;;
19111;SDS011;9688;51.906;8.376;2024-03-02T14:07:42;4.93;;;4.23;;
19111;SDS011;9688;51.906;8.376;2024-03-02T14:10:27;4.83;;;3.90;;
19111;SDS011;9688;51.906;8.376;2024-03-02T14:13:12;4.77;;;3.53;;
19111;SDS011;9688;51.906;8.376;2024-03-02T14:15:59;5.27;;;3.57;;
19111;SDS011;9688;51.906;8.376;2024-03-02T14:18:46;7.37;;;4.40;;
19111;SDS011;9688;51.906;8.376;2024-03-02T14:21:31;4.93;;;3.90;;
19111;SDS011;9688;51.906;8.376;2024-03-02T14:24:16;5.67;;;4.00;;
19111;SDS011;9688;51.906;8.376;2024-03-02T14:27:01;6.80;;;3.87;;
19111;SDS011;9688;51.906;8.376;2024-03-02T14:29:48;4.27;;;3.57;;
19111;SDS011;9688;51.906;8.376;2024-03-02T14:32:33;5.73;;;4.07;;
19111;SDS011;9688;51.906;8.376;2024-03-02T14:35:20;5.23;;;3.67;;
19111;SDS011;9688;51.906;8.376;2024-03-02T14:38:06;4.43;;;3.67;;
19111;SDS011;9688;51.906;8.376;2024-03-02T14:40:51;4.77;;;3.40;;
19111;SDS011;9688;51.906;8.376;2024-03-02T14:43:37;4.93;;;3.50;;
19111;SDS011;9688;51.906;8.376;2024-03-02T14:46:22;4.03;;;3.30;;
19111;SDS011;9688;51.906;8.376;2024-03-02T14:49:07;4.40;;;3.30;;
19111;SDS011;9688;51.906;8.376;2024-03-02T14:51:54;4.10;;;2.97;;
19111;SDS011;9688;51.906;8.376;2024-03-02T14:54:39;4.37;;;2.90;;
19111;SDS011;9688;51.906;8.376;2024-03-02T14:57:26;3.70;;;3.40;;
19111;SDS011;9688;51.906;8.376;2024-03-02T15:00:11;3.97;;;3.20;;
19111;SDS011;9688;51.906;8.376;2024-03-02T15:02:57;3.57;;;3.17;;
19111;SDS011;9688;51.906;8.376;2024-03-02T15:05:42;3.33;;;3.00;;
19111;SDS011;9688;51.906;8.376;2024-03-02T15:08:30;3.57;;;3.17;;
19111;SDS011;9688;51.906;8.376;2024-03-02T15:11:16;3.67;;;3.20;;
19111;SDS011;9688;51.906;8.376;2024-03-02T15:14:01;3.50;;;3.20;;
19111;SDS011;9688;51.906;8.376;2024-03-02T15:16:46;6.27;;;3.43;;
19111;SDS011;9688;51.906;8.376;2024-03-02T15:19:33;5.13;;;3.10;;
19111;SDS011;9688;51.906;8.376;2024-03-02T15:22:18;3.10;;;2.80;;
19111;SDS011;9688;51.906;8.376;2024-03-02T15:25:05;3.13;;;2.83;;
19111;SDS011;9688;51.906;8.376;2024-03-02T15:27:50;3.53;;;2.57;;
19111;SDS011;9688;51.906;8.376;2024-03-02T15:30:36;4.30;;;2.90;;
19111;SDS011;9688;51.906;8.376;2024-03-02T15:33:21;4.10;;;2.90;;
19111;SDS011;9688;51.906;8.376;2024-03-02T15:36:09;3.00;;;2.80;;
19111;SDS011;9688;51.906;8.376;2024-03-02T15:38:54;2.90;;;2.60;;
19111;SDS011;9688;51.906;8.376;2024-03-02T15:41:42;2.60;;;2.20;;
19111;SDS011;9688;51.906;8.376;2024-03-02T15:44:28;2.63;;;2.43;;
19111;SDS011;9688;51.906;8.376;2024-03-02T15:47:13;2.80;;;2.40;;
19111;SDS011;9688;51.906;8.376;2024-03-02T15:49:59;2.23;;;2.03;;
19111;SDS011;9688;51.906;8.376;2024-03-02T15:52:44;2.50;;;2.30;;
19111;SDS011;9688;51.906;8.376;2024-03-02T15:55:30;1.93;;;1.80;;
19111;SDS011;9688;51.906;8.376;2024-03-02T15:58:17;2.37;;;2.07;;
19111;SDS011;9688;51.906;8.376;2024-03-02T16:01:03;2.27;;;2.00;;
19111;SDS011;9688;51.906;8.376;2024-03-02T16:03:48;3.23;;;2.00;;
19111;SDS011;9688;51.906;8.376;2024-03-02T16:06:34;2.20;;;2.10;;
19111;SDS011;9688;51.906;8.376;2024-03-02T16:09:19;2.03;;;1.87;;
19111;SDS011;9688;51.906;8.376;2024-03-02T16:12:04;3.53;;;2.00;;
19111;SDS011;9688;51.906;8.376;2024-03-02T16:14:52;2.83;;;1.83;;
19111;SDS011;9688;51.906;8.376;2024-03-02T16:17:37;2.10;;;1.83;;
19111;SDS011;9688;51.906;8.376;2024-03-02T16:20:23;1.93;;;1.67;;
19111;SDS011;9688;51.906;8.376;2024-03-02T16:23:08;4.47;;;2.00;;
19111;SDS011;9688;51.906;8.376;2024-03-02T16:25:53;2.23;;;1.90;;
19111;SDS011;9688;51.906;8.376;2024-03-02T16:28:38;2.20;;;2.07;;
19111;SDS011;9688;51.906;8.376;2024-03-02T16:31:25;2.00;;;1.87;;
19111;SDS011;9688;51.906;8.376;2024-03-02T16:34:10;2.50;;;2.33;;
19111;SDS011;9688;51.906;8.376;2024-03-02T16:36:56;2.33;;;2.07;;
19111;SDS011;9688;51.906;8.376;2024-03-02T16:39:41;3.70;;;2.23;;
19111;SDS011;9688;51.906;8.376;2024-03-02T16:42:28;2.43;;;2.23;;
19111;SDS011;9688;51.906;8.376;2024-03-02T16:45:13;2.50;;;2.30;;
19111;SDS011;9688;51.906;8.376;2024-03-02T16:48:01;4.53;;;2.53;;
19111;SDS011;9688;51.906;8.376;2024-03-02T16:50:46;3.60;;;2.37;;